Time;durP1;ratioP1;P1;durP2;ratioP2;P2;SDS_P1;SDS_P2;PMS_P1;PMS_P2;Temp;Humidity;BMP_temperature;BMP_pressure;BME280_temperature;BME280_humidity;BME280_pressure;Samples;Min_cycle;Max_cycle;Signal;HPM_P1;HPM_P2
2022/06/28 00:00:19;;;;;;;1.87;1.77;;;17.70;99.90;;;;;;7345295;19;20732;-41
2022/06/28 00:02:48;;;;;;;4.93;2.00;;;17.60;99.90;;;;;;7362463;19;20399;-40
2022/06/28 00:05:18;;;;;;;2.00;1.80;;;17.70;99.90;;;;;;7362654;19;20412;-41
2022/06/28 00:07:48;;;;;;;2.73;2.10;;;17.80;99.90;;;;;;7366286;19;20496;-41
2022/06/28 00:10:20;;;;;;;1.73;1.60;;;18.00;99.90;;;;;;7364815;19;20380;-44
2022/06/28 00:12:52;;;;;;;1.80;1.70;;;17.90;99.90;;;;;;7368050;19;20372;-44
2022/06/28 00:18:06;;;;;;;1.90;1.43;;;17.80;99.90;;;;;;7354274;19;20925;-44
2022/06/28 00:20:35;;;;;;;1.60;1.50;;;17.50;99.90;;;;;;7358995;19;20368;-44
2022/06/28 00:23:05;;;;;;;2.40;1.87;;;17.40;99.90;;;;;;7365753;19;21287;-44
2022/06/28 00:25:35;;;;;;;1.50;1.40;;;17.40;99.90;;;;;;7359868;19;20433;-44
2022/06/28 00:28:05;;;;;;;3.30;1.60;;;17.60;99.90;;;;;;7365176;19;20380;-45
2022/06/28 00:30:37;;;;;;;2.07;1.50;;;17.50;99.90;;;;;;7360167;19;20380;-40
2022/06/28 00:33:07;;;;;;;2.13;1.73;;;17.50;99.90;;;;;;7365987;19;20376;-41
2022/06/28 00:35:39;;;;;;;4.10;1.40;;;17.70;99.90;;;;;;7369866;19;20376;-41
2022/06/28 00:38:09;;;;;;;1.60;1.50;;;17.80;99.90;;;;;;7376150;19;20380;-41
2022/06/28 00:40:49;;;;;;;2.23;1.50;;;17.70;99.90;;;;;;7368134;19;20408;-41
2022/06/28 00:43:19;;;;;;;1.30;1.20;;;17.80;99.90;;;;;;7374176;19;20387;-41
2022/06/28 00:45:51;;;;;;;1.60;1.50;;;17.80;99.90;;;;;;7366519;19;20376;-40
2022/06/28 00:48:21;;;;;;;1.70;1.60;;;17.60;99.90;;;;;;7366343;19;20368;-40
2022/06/28 00:50:50;;;;;;;2.70;1.50;;;17.80;99.90;;;;;;7366818;19;20376;-41
2022/06/28 00:53:21;;;;;;;4.03;1.60;;;18.00;99.90;;;;;;7369589;19;20379;-42
2022/06/28 00:55:51;;;;;;;3.23;1.50;;;18.30;99.90;;;;;;7369183;19;20395;-40
2022/06/28 00:58:20;;;;;;;3.50;1.43;;;18.10;99.90;;;;;;7366680;19;20398;-41
2022/06/28 01:00:53;;;;;;;1.60;1.50;;;18.30;99.90;;;;;;7364979;19;20411;-41
2022/06/28 01:03:24;;;;;;;1.60;1.50;;;18.20;99.90;;;;;;7370272;19;20387;-41
2022/06/28 01:05:56;;;;;;;2.60;1.80;;;17.90;99.90;;;;;;7368535;19;20396;-41
2022/06/28 01:08:29;;;;;;;11.93;1.73;;;17.90;99.90;;;;;;7365515;19;21039;-41
2022/06/28 01:11:18;;;;;;;2.10;1.67;;;17.70;99.90;;;;;;7360406;19;20463;-41
2022/06/28 01:13:51;;;;;;;2.00;1.50;;;17.40;99.90;;;;;;7369643;19;20396;-41
2022/06/28 01:16:26;;;;;;;1.67;1.57;;;17.50;99.90;;;;;;7367764;19;20399;-40
2022/06/28 01:19:07;;;;;;;1.80;1.60;;;17.60;99.90;;;;;;7373048;19;20818;-40
2022/06/28 01:21:40;;;;;;;2.33;1.43;;;17.70;99.90;;;;;;7356790;19;20445;-40
2022/06/28 01:24:13;;;;;;;3.33;1.83;;;17.90;99.90;;;;;;7369913;19;20456;-40
2022/06/28 01:26:49;;;;;;;1.83;1.67;;;17.90;99.90;;;;;;7363967;19;20421;-40
2022/06/28 01:29:20;;;;;;;1.77;1.43;;;17.70;99.90;;;;;;7370516;19;20413;-40
2022/06/28 01:31:58;;;;;;;2.30;1.60;;;17.60;99.90;;;;;;7364883;19;20994;-40
2022/06/28 01:34:28;;;;;;;2.73;1.80;;;17.50;99.90;;;;;;7367757;19;20701;-41
2022/06/28 01:36:58;;;;;;;2.10;1.90;;;17.60;99.90;;;;;;7368641;19;20368;-44
2022/06/28 01:39:33;;;;;;;1.43;1.30;;;17.60;99.90;;;;;;7352624;19;20372;-40
2022/06/28 01:42:03;;;;;;;6.70;1.53;;;17.50;99.90;;;;;;7355599;19;20368;-41
2022/06/28 01:44:34;;;;;;;2.80;1.80;;;17.60;99.90;;;;;;7367658;19;20373;-40
2022/06/28 01:47:12;;;;;;;1.70;1.60;;;17.50;99.90;;;;;;7360630;19;20408;-40
2022/06/28 01:50:00;;;;;;;1.30;1.20;;;17.70;99.90;;;;;;7369880;19;20393;-41
2022/06/28 01:52:35;;;;;;;3.17;1.30;;;17.90;99.90;;;;;;7365675;19;20886;-40
2022/06/28 01:55:20;;;;;;;1.60;1.33;;;17.90;99.90;;;;;;7365137;19;20440;-40
2022/06/28 01:57:52;;;;;;;4.50;1.70;;;18.00;99.90;;;;;;7363451;19;20380;-40
2022/06/28 02:00:22;;;;;;;2.53;1.80;;;17.80;99.90;;;;;;7367209;19;20383;-40
2022/06/28 02:02:54;;;;;;;2.10;1.70;;;17.70;99.90;;;;;;7364089;19;21306;-40
2022/06/28 02:05:30;;;;;;;4.03;1.70;;;17.50;99.90;;;;;;7369738;19;20788;-41
2022/06/28 02:08:00;;;;;;;1.40;1.30;;;17.60;99.90;;;;;;7352026;19;22022;-41
2022/06/28 02:10:39;;;;;;;1.47;1.37;;;17.80;99.90;;;;;;7367304;19;20777;-41
2022/06/28 02:13:09;;;;;;;1.70;1.60;;;18.00;99.90;;;;;;7367092;19;20789;-41
2022/06/28 02:15:39;;;;;;;2.17;1.83;;;18.20;99.90;;;;;;7367430;19;20401;-41
2022/06/28 02:18:09;;;;;;;1.70;1.60;;;18.30;99.90;;;;;;7365449;19;20459;-41
2022/06/28 02:20:39;;;;;;;6.67;2.27;;;18.20;99.90;;;;;;7370086;19;21192;-41
2022/06/28 02:23:09;;;;;;;5.13;1.43;;;17.90;99.90;;;;;;7370734;19;20733;-41
2022/06/28 02:25:41;;;;;;;2.17;1.90;;;17.60;99.90;;;;;;7360484;19;20384;-41
2022/06/28 02:28:10;;;;;;;2.17;1.97;;;17.50;99.90;;;;;;7364987;19;20376;-41
2022/06/28 02:30:40;;;;;;;1.90;1.70;;;17.60;99.90;;;;;;7365087;19;20388;-41
2022/06/28 02:33:10;;;;;;;1.83;1.67;;;17.80;99.90;;;;;;7358251;19;20384;-41
2022/06/28 02:41:09;;;;;;;2.93;1.30;;;18.00;99.90;;;;;;7365819;19;20368;-44
2022/06/28 02:43:38;;;;;;;1.93;1.70;;;17.60;99.90;;;;;;7368287;19;20494;-45
2022/06/28 02:46:08;;;;;;;6.33;2.00;;;17.60;99.90;;;;;;7368438;19;20432;-44
2022/06/28 02:48:38;;;;;;;2.40;2.20;;;17.50;99.90;;;;;;7358976;19;20388;-45
2022/06/28 02:51:10;;;;;;;2.80;1.67;;;17.70;99.90;;;;;;7363422;19;20379;-44
2022/06/28 02:53:40;;;;;;;1.73;1.57;;;17.60;99.90;;;;;;7358744;19;20384;-45
2022/06/28 02:56:12;;;;;;;2.50;1.90;;;17.20;99.90;;;;;;7369624;19;20375;-44
2022/06/28 02:58:41;;;;;;;2.27;1.93;;;16.90;99.90;;;;;;7367477;19;20383;-44
2022/06/28 03:01:11;;;;;;;2.63;1.70;;;17.00;99.90;;;;;;7345495;19;20397;-44
2022/06/28 03:03:41;;;;;;;2.20;1.80;;;16.90;99.90;;;;;;7360733;19;20447;-44
2022/06/28 03:06:11;;;;;;;2.20;2.00;;;16.90;99.90;;;;;;7363723;19;20393;-44
2022/06/28 03:08:42;;;;;;;4.30;2.30;;;17.00;99.90;;;;;;7367662;19;21166;-45
2022/06/28 03:11:15;;;;;;;2.90;2.00;;;17.00;99.90;;;;;;7357146;19;20364;-44
2022/06/28 03:13:44;;;;;;;6.87;2.73;;;16.90;99.90;;;;;;7366155;19;20532;-46
2022/06/28 03:16:14;;;;;;;2.70;1.80;;;16.90;99.90;;;;;;7359206;19;20416;-44
2022/06/28 03:18:43;;;;;;;3.07;2.20;;;17.00;99.90;;;;;;7346205;19;20380;-40
2022/06/28 03:21:13;;;;;;;2.43;2.23;;;17.10;99.90;;;;;;7342754;19;20380;-41
2022/06/28 03:23:42;;;;;;;3.70;2.60;;;17.00;99.90;;;;;;7363878;19;20376;-41
2022/06/28 03:26:15;;;;;;;2.47;2.23;;;17.00;99.90;;;;;;7346498;19;20367;-41
2022/06/28 03:28:44;;;;;;;2.37;1.90;;;17.00;99.90;;;;;;7347736;19;20488;-40
2022/06/28 03:31:14;;;;;;;4.40;1.80;;;17.00;99.90;;;;;;7326231;19;20421;-40
2022/06/28 03:33:44;;;;;;;2.33;2.10;;;17.00;99.90;;;;;;7331634;19;20416;-41
2022/06/28 03:36:16;;;;;;;3.37;1.83;;;17.10;99.90;;;;;;7313309;19;20404;-41
2022/06/28 03:38:47;;;;;;;4.60;2.07;;;16.80;99.90;;;;;;7340789;19;21002;-41
2022/06/28 03:41:25;;;;;;;2.20;2.00;;;16.70;99.90;;;;;;7348882;19;20371;-45
2022/06/28 03:44:04;;;;;;;2.43;2.23;;;16.80;99.90;;;;;;7367103;19;20394;-43
2022/06/28 03:46:34;;;;;;;3.60;1.83;;;17.00;99.90;;;;;;7364384;19;20427;-43
2022/06/28 03:49:23;;;;;;;4.73;2.17;;;17.00;99.90;;;;;;7361543;19;20432;-43
2022/06/28 03:51:58;;;;;;;2.10;1.90;;;17.10;99.90;;;;;;7350166;19;20379;-44
2022/06/28 03:54:30;;;;;;;2.57;1.87;;;17.30;99.90;;;;;;7362060;19;20866;-44
2022/06/28 03:57:17;;;;;;;3.23;2.10;;;17.30;99.90;;;;;;7362635;19;20925;-43
2022/06/28 03:59:50;;;;;;;1.87;1.70;;;16.90;99.90;;;;;;7365440;19;20391;-44
2022/06/28 04:02:21;;;;;;;3.13;2.00;;;16.80;99.90;;;;;;7353887;19;20364;-43
2022/06/28 04:04:50;;;;;;;2.40;2.20;;;16.80;99.90;;;;;;7354438;19;20376;-44
2022/06/28 04:07:20;;;;;;;2.30;2.10;;;16.90;99.90;;;;;;7356410;19;20379;-44
2022/06/28 04:09:51;;;;;;;3.63;2.00;;;17.00;99.90;;;;;;7313383;19;21139;-44
2022/06/28 04:12:23;;;;;;;4.20;2.60;;;17.20;99.90;;;;;;7334172;19;20420;-44
2022/06/28 04:14:55;;;;;;;2.70;1.97;;;17.20;99.90;;;;;;7347168;19;20431;-43
2022/06/28 04:17:24;;;;;;;2.10;1.97;;;17.40;99.90;;;;;;7350882;19;20364;-44
2022/06/28 04:20:14;;;;;;;2.33;1.97;;;17.30;99.90;;;;;;7366470;19;20365;-43
2022/06/28 04:22:58;;;;;;;2.40;1.87;;;17.50;99.90;;;;;;7364209;19;20512;-44
2022/06/28 04:25:28;;;;;;;3.77;2.23;;;17.50;99.90;;;;;;7367339;19;20392;-45
2022/06/28 04:28:07;;;;;;;2.80;2.13;;;17.40;99.90;;;;;;7369943;19;20419;-45
2022/06/28 04:30:39;;;;;;;4.73;2.30;;;17.50;99.90;;;;;;7353224;19;20383;-43
2022/06/28 04:33:09;;;;;;;2.90;2.33;;;17.70;99.90;;;;;;7354773;19;20392;-43
2022/06/28 04:35:39;;;;;;;4.40;2.60;;;17.70;99.90;;;;;;7369035;19;20891;-43
2022/06/28 04:38:09;;;;;;;4.23;2.20;;;17.60;99.90;;;;;;7369473;19;20364;-43
2022/06/28 04:40:55;;;;;;;3.33;2.60;;;17.60;99.90;;;;;;7373710;19;20372;-39
2022/06/28 04:43:49;;;;;;;2.40;2.20;;;17.90;99.90;;;;;;7372316;19;20379;-41
2022/06/28 04:46:24;;;;;;;3.40;3.10;;;18.20;99.90;;;;;;7367859;19;20425;-40
2022/06/28 04:48:57;;;;;;;2.90;2.70;;;18.10;99.90;;;;;;7374371;19;20376;-41
2022/06/28 04:51:36;;;;;;;2.70;2.50;;;18.20;99.90;;;;;;7375250;19;20391;-40
2022/06/28 04:54:06;;;;;;;4.20;2.30;;;18.30;99.90;;;;;;7369621;19;20364;-40
2022/06/28 04:56:52;;;;;;;4.50;2.80;;;18.60;99.90;;;;;;7375129;19;20403;-40
2022/06/28 04:59:26;;;;;;;5.47;4.20;;;18.90;99.90;;;;;;7374577;19;20376;-40
2022/06/28 05:01:56;;;;;;;11.10;7.83;;;19.10;99.90;;;;;;7375691;19;20371;-40
2022/06/28 05:04:25;;;;;;;4.27;2.97;;;19.20;99.90;;;;;;7371202;19;20415;-40
2022/06/28 05:07:15;;;;;;;4.33;3.93;;;19.20;99.90;;;;;;7375093;19;20372;-40
2022/06/28 05:09:44;;;;;;;7.47;4.37;;;19.30;99.90;;;;;;7365923;19;20376;-40
2022/06/28 05:12:19;;;;;;;4.90;3.80;;;19.40;99.90;;;;;;7368319;19;20413;-41
2022/06/28 05:14:52;;;;;;;8.33;5.17;;;19.20;99.90;;;;;;7373900;19;20464;-41
2022/06/28 05:17:25;;;;;;;3.63;3.03;;;19.30;99.90;;;;;;7373126;19;22092;-41
2022/06/28 05:19:55;;;;;;;6.10;3.93;;;19.30;99.90;;;;;;7366014;19;21076;-41
2022/06/28 05:22:24;;;;;;;12.13;8.97;;;19.50;99.90;;;;;;7368256;19;20425;-41
2022/06/28 05:25:25;;;;;;;13.87;4.83;;;19.60;99.90;;;;;;7357892;19;20408;-41
2022/06/28 05:27:56;;;;;;;7.17;3.90;;;19.60;99.90;;;;;;7373383;19;20380;-41
2022/06/28 05:30:31;;;;;;;6.20;4.27;;;19.70;99.90;;;;;;7372663;19;20453;-40
2022/06/28 05:33:03;;;;;;;19.93;5.53;;;19.60;99.90;;;;;;7343960;19;20383;-41
2022/06/28 05:35:32;;;;;;;6.93;5.43;;;19.50;99.90;;;;;;7352167;19;20400;-41
2022/06/28 05:38:02;;;;;;;5.80;5.30;;;19.60;99.90;;;;;;7371726;19;20436;-41
2022/06/28 05:40:32;;;;;;;6.37;5.70;;;19.50;99.90;;;;;;7373408;19;21125;-41
2022/06/28 05:43:04;;;;;;;7.17;5.20;;;19.50;99.90;;;;;;7362816;19;20439;-41
2022/06/28 05:45:36;;;;;;;6.27;5.50;;;19.60;99.90;;;;;;7372158;19;20384;-41
2022/06/28 05:48:06;;;;;;;6.23;5.63;;;19.80;99.90;;;;;;7355211;19;20439;-40
2022/06/28 05:50:35;;;;;;;6.07;5.47;;;19.90;99.90;;;;;;7372069;19;20373;-48
2022/06/28 05:53:05;;;;;;;6.23;5.13;;;20.30;99.90;;;;;;7370399;19;20980;-44
2022/06/28 05:55:35;;;;;;;6.40;5.30;;;20.30;99.90;;;;;;7362029;19;20405;-44
2022/06/28 05:58:06;;;;;;;7.00;4.70;;;20.00;99.90;;;;;;7345646;19;20945;-43
2022/06/28 06:00:39;;;;;;;7.40;6.60;;;20.00;99.90;;;;;;7367838;19;20376;-43
2022/06/28 06:03:08;;;;;;;6.10;5.50;;;20.10;99.90;;;;;;7367180;19;21128;-44
2022/06/28 06:05:38;;;;;;;7.63;5.93;;;20.10;99.90;;;;;;7372353;19;20365;-44
2022/06/28 06:08:08;;;;;;;7.60;5.27;;;20.20;99.90;;;;;;7373836;19;20416;-44
2022/06/28 06:10:37;;;;;;;6.40;5.80;;;20.30;99.90;;;;;;7369790;19;20388;-44
2022/06/28 06:13:08;;;;;;;5.63;5.13;;;20.40;99.90;;;;;;7371921;19;20997;-44
2022/06/28 06:15:40;;;;;;;7.47;5.60;;;20.50;99.90;;;;;;7375574;19;20988;-45
2022/06/28 06:18:10;;;;;;;6.30;5.70;;;20.60;99.90;;;;;;7370319;19;20406;-45
2022/06/28 06:20:39;;;;;;;6.77;6.07;;;20.70;99.90;;;;;;7371087;19;20480;-44
2022/06/28 06:23:11;;;;;;;8.63;6.10;;;20.70;99.90;;;;;;7364442;19;21353;-45
2022/06/28 06:26:04;;;;;;;6.33;5.60;;;20.70;99.90;;;;;;7368704;19;21027;-45
2022/06/28 06:28:35;;;;;;;6.53;5.90;;;20.80;99.90;;;;;;7367616;19;20375;-44
2022/06/28 06:31:09;;;;;;;8.60;5.87;;;20.90;99.90;;;;;;7370112;19;20383;-45
2022/06/28 06:34:12;;;;;;;6.70;5.90;;;20.80;99.90;;;;;;7370430;19;20419;-45
2022/06/28 06:36:53;;;;;;;7.40;6.17;;;20.80;99.90;;;;;;7371186;19;20375;-45
2022/06/28 06:39:23;;;;;;;6.27;5.57;;;20.80;99.90;;;;;;7368468;19;20387;-44
2022/06/28 06:41:52;;;;;;;5.70;5.20;;;20.80;99.90;;;;;;7370076;19;21268;-47
2022/06/28 06:44:25;;;;;;;7.10;5.60;;;21.00;99.90;;;;;;7371244;19;20504;-45
2022/06/28 06:46:57;;;;;;;6.07;5.47;;;21.10;99.90;;;;;;7368600;19;20421;-45
2022/06/28 06:49:27;;;;;;;5.70;5.20;;;21.20;99.90;;;;;;7368260;19;20416;-45
2022/06/28 06:51:56;;;;;;;5.93;5.33;;;21.20;99.90;;;;;;7363026;19;20392;-44
2022/06/28 06:54:26;;;;;;;6.80;5.30;;;21.20;99.90;;;;;;7361727;19;20395;-45
2022/06/28 06:56:56;;;;;;;6.23;5.73;;;21.20;99.90;;;;;;7365704;19;20376;-44
2022/06/28 06:59:25;;;;;;;7.70;7.00;;;21.30;99.90;;;;;;7371378;19;20387;-43
2022/06/28 07:01:58;;;;;;;6.43;5.93;;;21.20;99.90;;;;;;7355421;19;20368;-45
2022/06/28 07:04:32;;;;;;;7.40;6.70;;;21.00;99.90;;;;;;7353071;19;20380;-45
2022/06/28 07:07:02;;;;;;;6.73;5.83;;;21.00;99.90;;;;;;7357920;19;20854;-43
2022/06/28 07:09:32;;;;;;;6.67;6.07;;;20.80;99.90;;;;;;7361562;19;21003;-44
2022/06/28 07:12:02;;;;;;;7.40;6.63;;;20.70;99.90;;;;;;7368378;19;20412;-44
2022/06/28 07:14:31;;;;;;;7.90;7.20;;;20.60;99.90;;;;;;7361011;19;20811;-44
2022/06/28 07:17:07;;;;;;;9.20;8.30;;;20.60;99.90;;;;;;7355463;19;22352;-45
2022/06/28 07:19:38;;;;;;;9.37;8.43;;;20.30;99.90;;;;;;7364632;19;20431;-44
2022/06/28 07:22:07;;;;;;;10.90;7.63;;;20.30;99.90;;;;;;7355120;19;20376;-44
2022/06/28 07:24:39;;;;;;;7.87;7.17;;;20.10;99.90;;;;;;7354941;19;20881;-44
2022/06/28 07:27:08;;;;;;;7.90;6.80;;;20.10;99.90;;;;;;7369620;19;20396;-44
2022/06/28 07:29:40;;;;;;;8.33;7.00;;;20.20;99.90;;;;;;7372624;19;20416;-43
2022/06/28 07:32:15;;;;;;;9.33;6.63;;;20.40;99.90;;;;;;7359514;19;20439;-44
2022/06/28 07:34:48;;;;;;;7.70;6.90;;;20.60;99.90;;;;;;7371974;19;20379;-43
2022/06/28 07:37:17;;;;;;;7.27;6.63;;;20.50;99.90;;;;;;7368961;19;21086;-43
2022/06/28 07:39:50;;;;;;;7.90;7.10;;;20.50;99.90;;;;;;7366166;19;20416;-44
2022/06/28 07:42:38;;;;;;;7.47;6.07;;;20.50;99.90;;;;;;7362166;19;20400;-45
2022/06/28 07:45:28;;;;;;;7.50;6.77;;;20.60;99.90;;;;;;7372668;19;20730;-46
2022/06/28 07:48:11;;;;;;;9.80;7.80;;;20.80;99.90;;;;;;7367781;19;20607;-44
2022/06/28 07:53:28;;;;;;;7.07;6.00;;;20.60;99.90;;;;;;7368820;19;20379;-45
2022/06/28 07:56:27;;;;;;;8.33;6.67;;;20.80;99.90;;;;;;7365052;19;20475;-45
2022/06/28 07:58:58;;;;;;;7.53;6.83;;;21.00;99.90;;;;;;7370286;19;20512;-44
2022/06/28 08:01:31;;;;;;;6.90;6.30;;;21.20;99.90;;;;;;7366082;19;22039;-44
2022/06/28 08:04:05;;;;;;;6.63;6.03;;;21.20;99.90;;;;;;7370750;19;20751;-44
2022/06/28 08:06:36;;;;;;;6.53;6.00;;;21.00;99.90;;;;;;7369143;19;20408;-44
2022/06/28 08:09:06;;;;;;;5.70;5.20;;;21.10;99.90;;;;;;7367588;19;20961;-44
2022/06/28 08:11:36;;;;;;;6.97;5.63;;;21.70;99.90;;;;;;7370235;19;20387;-45
2022/06/28 08:14:11;;;;;;;6.07;5.00;;;22.10;99.90;;;;;;7373155;19;20412;-44
2022/06/28 08:16:42;;;;;;;4.80;4.07;;;22.60;99.90;;;;;;7371875;19;20472;-44
2022/06/28 08:19:19;;;;;;;5.20;4.77;;;23.20;99.90;;;;;;7364397;19;20412;-45
2022/06/28 08:21:49;;;;;;;4.50;4.10;;;23.60;98.70;;;;;;7371049;19;20376;-45
2022/06/28 08:24:21;;;;;;;5.70;5.17;;;24.00;95.70;;;;;;7372283;19;21231;-45
2022/06/28 08:26:52;;;;;;;7.97;4.23;;;24.00;94.30;;;;;;7372357;19;20435;-44
2022/06/28 08:29:22;;;;;;;5.33;4.83;;;23.90;95.80;;;;;;7370419;19;20383;-44
2022/06/28 08:31:52;;;;;;;4.17;3.77;;;24.00;93.90;;;;;;7374889;19;20404;-45
2022/06/28 08:34:24;;;;;;;4.20;3.60;;;24.10;94.70;;;;;;7370119;19;20419;-43
2022/06/28 08:36:56;;;;;;;5.03;4.63;;;24.50;93.80;;;;;;7374315;19;20446;-45
2022/06/28 08:39:25;;;;;;;4.87;4.17;;;24.70;91.40;;;;;;7370865;19;20376;-44
2022/06/28 08:41:56;;;;;;;4.10;3.70;;;24.90;91.50;;;;;;7374612;19;20480;-44
2022/06/28 08:44:26;;;;;;;3.33;3.13;;;25.20;88.50;;;;;;7372426;19;20429;-44
2022/06/28 08:46:57;;;;;;;5.07;3.23;;;25.50;86.60;;;;;;7368875;19;20427;-44
2022/06/28 08:49:37;;;;;;;2.90;2.60;;;25.90;85.50;;;;;;7370973;19;20951;-44
2022/06/28 08:52:10;;;;;;;5.43;3.43;;;26.00;84.70;;;;;;7373723;19;20404;-44
2022/06/28 08:54:41;;;;;;;5.20;2.83;;;26.40;79.00;;;;;;7348006;19;20466;-44
2022/06/28 08:57:13;;;;;;;3.67;3.00;;;26.40;77.30;;;;;;7357051;19;20376;-45
2022/06/28 08:59:46;;;;;;;3.50;3.20;;;26.30;77.20;;;;;;7378390;19;20758;-44
2022/06/28 09:02:16;;;;;;;3.93;3.50;;;26.40;76.20;;;;;;7378992;19;20401;-45
2022/06/28 09:04:53;;;;;;;2.80;2.60;;;26.20;75.40;;;;;;7375905;19;20415;-44
2022/06/28 09:07:23;;;;;;;3.50;3.20;;;26.40;76.20;;;;;;7379598;19;20364;-45
2022/06/28 09:09:55;;;;;;;3.53;3.20;;;26.30;75.70;;;;;;7374574;19;20391;-44
2022/06/28 09:12:27;;;;;;;3.20;3.00;;;26.10;74.60;;;;;;7378199;19;20360;-44
2022/06/28 09:15:04;;;;;;;2.90;2.70;;;26.00;76.80;;;;;;7378077;19;20384;-45
2022/06/28 09:17:36;;;;;;;3.37;2.43;;;26.50;74.90;;;;;;7381761;19;20480;-44
2022/06/28 09:20:11;;;;;;;3.27;2.97;;;26.90;73.00;;;;;;7375667;19;21211;-46
2022/06/28 09:22:42;;;;;;;3.80;2.90;;;26.90;71.40;;;;;;7373988;19;20503;-45
2022/06/28 09:25:13;;;;;;;4.03;3.13;;;26.90;69.90;;;;;;7376035;19;20391;-45
2022/06/28 09:27:44;;;;;;;4.17;2.90;;;26.70;69.00;;;;;;7377488;19;20914;-45
2022/06/28 09:30:15;;;;;;;2.60;2.40;;;26.80;71.30;;;;;;7378446;19;20434;-45
2022/06/28 09:32:45;;;;;;;2.87;2.60;;;27.20;70.00;;;;;;7379509;19;20416;-45
2022/06/28 09:35:17;;;;;;;9.10;3.23;;;27.30;67.30;;;;;;7376176;19;20372;-45
2022/06/28 09:37:50;;;;;;;2.50;2.30;;;27.20;65.80;;;;;;7374346;19;20391;-45
2022/06/28 09:40:24;;;;;;;2.53;2.33;;;27.20;65.60;;;;;;7375060;19;20408;-45
2022/06/28 09:43:09;;;;;;;2.33;2.13;;;27.00;68.50;;;;;;7376024;19;20412;-42
2022/06/28 09:45:40;;;;;;;5.27;2.27;;;27.20;66.20;;;;;;7379223;19;20417;-42
2022/06/28 09:48:12;;;;;;;2.00;1.90;;;27.10;63.60;;;;;;7377362;19;20432;-42
2022/06/28 09:50:44;;;;;;;1.73;1.63;;;27.30;63.60;;;;;;7379158;19;20427;-42
2022/06/28 09:53:16;;;;;;;4.00;2.07;;;27.30;63.50;;;;;;7377032;19;20380;-42
2022/06/28 09:55:45;;;;;;;1.70;1.60;;;27.40;65.00;;;;;;7376537;19;20380;-42
2022/06/28 09:58:15;;;;;;;1.70;1.60;;;28.10;63.10;;;;;;7382400;19;20372;-42
2022/06/28 10:00:46;;;;;;;3.23;1.80;;;28.90;59.80;;;;;;7376336;19;20416;-45
2022/06/28 10:03:16;;;;;;;2.33;2.13;;;29.70;57.10;;;;;;7373141;19;20408;-45
2022/06/28 10:05:48;;;;;;;2.57;2.23;;;29.80;55.50;;;;;;7378907;19;20375;-46
2022/06/28 10:08:18;;;;;;;2.30;2.10;;;29.50;55.00;;;;;;7373876;19;20790;-45
2022/06/28 10:10:48;;;;;;;3.33;2.83;;;29.10;55.70;;;;;;7369271;19;20408;-45
2022/06/28 10:16:07;;;;;;;2.30;2.10;;;28.40;58.00;;;;;;7375909;19;20420;-45
2022/06/28 10:18:37;;;;;;;2.87;2.60;;;28.40;57.90;;;;;;7376456;19;24616;-45
2022/06/28 10:21:09;;;;;;;2.20;2.00;;;28.70;57.70;;;;;;7377042;19;20357;-45
2022/06/28 10:23:41;;;;;;;2.30;2.00;;;29.70;56.40;;;;;;7376957;19;21059;-46
2022/06/28 10:26:13;;;;;;;2.90;2.10;;;30.70;52.20;;;;;;7375935;19;20789;-45
2022/06/28 10:28:45;;;;;;;2.20;2.00;;;30.60;52.20;;;;;;7376818;19;20735;-45
2022/06/28 10:31:34;;;;;;;5.83;3.67;;;30.10;51.80;;;;;;7377259;19;20874;-42
2022/06/28 10:34:05;;;;;;;2.67;2.47;;;30.00;52.50;;;;;;7370929;19;20419;-42
2022/06/28 10:36:48;;;;;;;2.10;1.90;;;29.70;52.90;;;;;;7376399;19;20408;-42
2022/06/28 10:39:23;;;;;;;3.70;1.50;;;29.40;54.80;;;;;;7379806;19;20372;-42
2022/06/28 10:41:54;;;;;;;2.10;2.00;;;29.30;53.70;;;;;;7376362;19;20364;-42
2022/06/28 10:44:26;;;;;;;2.97;2.77;;;30.20;53.00;;;;;;7379192;19;20404;-42
2022/06/28 10:47:14;;;;;;;1.80;1.70;;;31.50;50.70;;;;;;7373785;19;20427;-42
2022/06/28 10:49:58;;;;;;;3.30;1.60;;;32.40;45.70;;;;;;7375684;19;20459;-43
2022/06/28 10:52:35;;;;;;;2.30;1.60;;;33.30;45.60;;;;;;7378580;19;20491;-43
2022/06/28 10:55:25;;;;;;;1.70;1.60;;;33.60;45.00;;;;;;7372220;19;20412;-42
2022/06/28 10:58:10;;;;;;;1.57;1.17;;;33.00;45.20;;;;;;7377504;19;20965;-43
2022/06/28 11:00:55;;;;;;;2.60;1.50;;;32.20;45.40;;;;;;7375072;19;20372;-46
2022/06/28 11:03:25;;;;;;;2.50;1.40;;;31.80;46.60;;;;;;7374456;19;20408;-45
2022/06/28 11:05:56;;;;;;;2.47;1.80;;;31.70;46.60;;;;;;7373558;19;20383;-45
2022/06/28 11:08:59;;;;;;;2.63;1.77;;;32.00;47.30;;;;;;7376180;19;20989;-45
2022/06/28 11:11:35;;;;;;;1.93;1.40;;;32.70;45.40;;;;;;7374760;19;20380;-45
2022/06/28 11:14:32;;;;;;;2.57;1.40;;;32.60;46.00;;;;;;7374583;19;20418;-45
2022/06/28 11:17:16;;;;;;;2.57;1.87;;;32.60;45.30;;;;;;7374277;19;20402;-46
2022/06/28 11:19:53;;;;;;;2.00;1.73;;;33.30;44.60;;;;;;7372733;19;20406;-46
2022/06/28 11:22:28;;;;;;;2.03;1.70;;;33.30;43.40;;;;;;7374497;19;20420;-45
2022/06/28 11:25:00;;;;;;;3.00;1.60;;;33.00;44.00;;;;;;7371322;19;20431;-46
2022/06/28 11:27:31;;;;;;;2.97;1.70;;;33.20;44.30;;;;;;7375956;19;20412;-46
2022/06/28 11:30:09;;;;;;;2.13;1.40;;;33.30;44.40;;;;;;7373332;19;20416;-46
2022/06/28 11:32:43;;;;;;;1.83;1.43;;;33.30;43.30;;;;;;7374076;19;20946;-45
2022/06/28 11:35:17;;;;;;;1.70;1.57;;;33.30;43.40;;;;;;7373421;19;20416;-43
2022/06/28 11:37:52;;;;;;;2.40;1.60;;;33.10;43.30;;;;;;7367819;19;20423;-42
2022/06/28 11:40:23;;;;;;;1.60;1.30;;;32.50;45.00;;;;;;7370743;19;20768;-42
2022/06/28 11:43:08;;;;;;;1.87;1.27;;;32.10;45.10;;;;;;7374845;19;20832;-42
2022/06/28 11:45:41;;;;;;;2.03;1.30;;;31.20;46.70;;;;;;7373247;19;20400;-42
2022/06/28 11:48:15;;;;;;;1.50;1.40;;;30.70;46.90;;;;;;7359739;19;20925;-42
2022/06/28 11:50:46;;;;;;;1.27;1.17;;;30.60;47.60;;;;;;7365651;19;20413;-42
2022/06/28 11:53:19;;;;;;;1.73;1.43;;;30.50;48.10;;;;;;7375350;19;20383;-42
2022/06/28 11:55:50;;;;;;;1.50;1.40;;;30.60;48.00;;;;;;7373775;19;20503;-43
2022/06/28 11:58:23;;;;;;;1.60;1.23;;;31.10;47.60;;;;;;7373271;19;20961;-43
2022/06/28 12:01:08;;;;;;;1.93;1.30;;;30.50;47.20;;;;;;7373001;19;20376;-45
2022/06/28 12:03:57;;;;;;;1.87;1.30;;;29.50;49.80;;;;;;7372015;19;20392;-45
2022/06/28 12:06:29;;;;;;;1.30;1.20;;;29.30;50.50;;;;;;7373420;19;20400;-49
2022/06/28 12:09:00;;;;;;;1.50;1.40;;;29.60;50.60;;;;;;7370504;19;20384;-45
2022/06/28 12:11:36;;;;;;;1.27;1.17;;;30.40;48.90;;;;;;7375836;19;20787;-46
2022/06/28 12:14:14;;;;;;;1.60;1.47;;;31.00;47.60;;;;;;7371331;19;20980;-45
2022/06/28 12:16:46;;;;;;;1.23;1.13;;;31.40;46.70;;;;;;7371102;19;20463;-45
2022/06/28 12:19:17;;;;;;;1.60;1.20;;;31.10;47.20;;;;;;7372117;19;20428;-45
2022/06/28 12:22:01;;;;;;;1.37;1.20;;;30.70;47.50;;;;;;7369794;19;20994;-44
2022/06/28 12:24:44;;;;;;;2.80;1.30;;;30.50;48.30;;;;;;7374507;19;20391;-45
2022/06/28 12:27:16;;;;;;;1.57;0.90;;;30.70;48.00;;;;;;7374307;19;21117;-45
2022/06/28 12:29:48;;;;;;;2.60;1.00;;;;;;;;;;7372827;19;20408;-45
2022/06/28 12:32:18;;;;;;;1.80;1.30;;;31.60;46.50;;;;;;7377492;19;20383;-45
2022/06/28 12:34:48;;;;;;;1.30;1.20;;;31.80;46.60;;;;;;7380957;19;20437;-45
2022/06/28 12:37:18;;;;;;;1.10;1.00;;;31.90;45.50;;;;;;7378878;19;20427;-45
2022/06/28 12:39:47;;;;;;;3.50;1.20;;;30.90;47.00;;;;;;7378897;19;20479;-46
2022/06/28 12:42:17;;;;;;;2.80;1.57;;;31.00;46.90;;;;;;7379439;19;20753;-45
2022/06/28 12:44:49;;;;;;;1.43;1.00;;;30.40;47.60;;;;;;7377518;19;20412;-45
2022/06/28 12:47:19;;;;;;;1.93;1.50;;;30.00;48.90;;;;;;7377662;19;21008;-46
2022/06/28 12:49:48;;;;;;;1.90;1.13;;;29.90;49.50;;;;;;7378627;19;20788;-45
2022/06/28 12:52:18;;;;;;;2.70;1.40;;;29.80;48.50;;;;;;7383316;19;20383;-45
2022/06/28 12:54:50;;;;;;;1.03;0.97;;;29.80;49.00;;;;;;7372636;19;20384;-45
2022/06/28 12:57:22;;;;;;;1.47;1.33;;;29.90;49.50;;;;;;7366089;19;20372;-45
2022/06/28 12:59:55;;;;;;;1.97;1.27;;;29.50;50.10;;;;;;7374679;19;20404;-41
2022/06/28 13:02:27;;;;;;;1.40;1.30;;;29.00;50.60;;;;;;7381020;19;20386;-41
2022/06/28 13:04:57;;;;;;;2.37;1.60;;;28.30;53.10;;;;;;7379189;19;20382;-41
2022/06/28 13:07:26;;;;;;;1.47;1.30;;;29.20;55.80;;;;;;7376693;19;20411;-41
2022/06/28 13:09:56;;;;;;;1.50;1.00;;;29.70;54.10;;;;;;7380628;19;20892;-41
2022/06/28 13:12:25;;;;;;;1.23;1.13;;;30.10;50.90;;;;;;7382009;19;20401;-42
2022/06/28 13:15:00;;;;;;;1.43;1.13;;;29.80;50.50;;;;;;7378926;19;20726;-41
2022/06/28 13:17:29;;;;;;;1.30;1.10;;;29.60;50.50;;;;;;7353843;19;20849;-41
2022/06/28 13:20:02;;;;;;;1.60;1.03;;;29.60;52.10;;;;;;7371824;19;20435;-41
2022/06/28 13:22:32;;;;;;;1.40;1.10;;;29.20;51.90;;;;;;7374935;19;20411;-41
2022/06/28 13:25:01;;;;;;;2.90;0.90;;;27.30;50.60;;;;;;7376802;19;20435;-41
2022/06/28 13:27:31;;;;;;;2.00;1.30;;;28.10;52.20;;;;;;7378862;19;20417;-41
2022/06/28 13:30:05;;;;;;;3.60;1.10;;;28.10;51.90;;;;;;7377791;19;20372;-41
2022/06/28 13:32:37;;;;;;;1.73;0.90;;;28.70;50.20;;;;;;7379054;19;20414;-41